Time;durP1;ratioP1;P1;durP2;ratioP2;P2;SDS_P1;SDS_P2;PMS_P1;PMS_P2;Temp;Humidity;BMP_temperature;BMP_pressure;BME280_temperature;BME280_humidity;BME280_pressure;Samples;Min_cycle;Max_cycle;Signal;HPM_P1;HPM_P2
2023/07/28 03:01:46;;;;;;;1.70;1.10;;;;;;;15.84;81.21;99527.53;4743308;23;8234708;-45
2023/07/28 03:04:13;;;;;;;3.03;0.90;;;;;;;15.83;81.63;99534.34;5029386;28;20048;-45
2023/07/28 03:06:40;;;;;;;4.15;1.02;;;;;;;15.84;81.90;99533.13;5032505;28;20047;-48
2023/07/28 03:09:06;;;;;;;4.90;1.30;;;;;;;15.84;82.10;99531.13;4988995;28;20057;-48
2023/07/28 03:11:33;;;;;;;7.07;1.30;;;;;;;15.87;82.22;99532.31;5022280;28;20045;-45
2023/07/28 03:14:00;;;;;;;3.55;1.13;;;;;;;15.87;82.05;99529.50;5014309;28;20477;-45
2023/07/28 03:16:27;;;;;;;2.13;1.10;;;;;;;15.85;82.40;99529.13;5020162;28;20495;-47
2023/07/28 03:18:53;;;;;;;1.48;0.93;;;;;;;15.87;82.40;99529.50;5032112;28;20049;-46
2023/07/28 03:21:20;;;;;;;10.65;1.98;;;;;;;15.84;82.47;99527.53;5027638;28;20045;-45
2023/07/28 03:23:47;;;;;;;2.50;1.15;;;;;;;15.83;82.62;99518.38;5013819;28;20104;-45
2023/07/28 03:26:14;;;;;;;4.63;0.82;;;;;;;15.79;82.54;99527.97;5020679;28;20053;-45
2023/07/28 03:28:40;;;;;;;4.20;1.35;;;;;;;15.74;82.76;99528.41;5025986;28;20119;-49
2023/07/28 03:31:07;;;;;;;4.22;1.20;;;;;;;15.72;82.82;99519.66;5021341;28;20069;-46
2023/07/28 03:33:34;;;;;;;4.22;1.02;;;;;;;15.65;83.05;99514.91;5029836;28;20068;-46
2023/07/28 03:36:01;;;;;;;4.55;1.30;;;;;;;15.61;82.98;99511.38;5030197;28;20140;-46
2023/07/28 03:38:27;;;;;;;2.40;1.10;;;;;;;15.59;83.16;99508.22;5015668;28;20049;-45
2023/07/28 03:40:54;;;;;;;2.78;1.45;;;;;;;15.57;83.18;99507.78;5026340;28;20045;-45
2023/07/28 03:43:21;;;;;;;2.83;1.55;;;;;;;15.56;83.35;99511.81;5026145;28;20046;-46
2023/07/28 03:45:48;;;;;;;1.27;0.85;;;;;;;15.56;83.27;99500.66;5019689;28;20041;-46
2023/07/28 03:48:15;;;;;;;3.25;1.42;;;;;;;15.54;83.34;99500.25;5031372;28;20133;-45
2023/07/28 03:50:42;;;;;;;3.38;1.60;;;;;;;15.52;83.38;99510.22;5007292;28;20049;-44
2023/07/28 03:53:08;;;;;;;3.95;1.48;;;;;;;15.55;83.49;99503.81;5030621;28;20060;-45
2023/07/28 03:55:35;;;;;;;6.43;1.10;;;;;;;15.53;83.55;99506.25;5021520;28;20574;-44
2023/07/28 03:58:02;;;;;;;1.77;1.17;;;;;;;15.49;83.57;99499.91;5030685;28;20553;-44
2023/07/28 04:00:29;;;;;;;4.00;1.20;;;;;;;15.46;83.75;99501.47;5012225;28;20054;-45
2023/07/28 04:02:56;;;;;;;1.85;1.08;;;;;;;15.45;83.72;99501.88;5020623;28;20057;-46
2023/07/28 04:05:24;;;;;;;2.47;1.05;;;;;;;15.42;83.83;99494.31;5030348;28;20195;-45
2023/07/28 04:07:51;;;;;;;3.65;1.25;;;;;;;15.40;84.04;99502.31;5024690;28;20478;-46
2023/07/28 04:10:18;;;;;;;4.65;1.08;;;;;;;15.40;84.21;99507.88;5024872;28;20046;-46
2023/07/28 04:12:45;;;;;;;2.40;1.20;;;;;;;15.42;84.17;99505.47;5024872;28;20049;-46
2023/07/28 04:15:11;;;;;;;3.17;1.20;;;;;;;15.40;84.35;99514.25;5011993;28;20100;-45
2023/07/28 04:17:38;;;;;;;4.57;2.20;;;;;;;15.40;84.25;99508.69;5025002;28;20053;-45
2023/07/28 04:20:06;;;;;;;3.38;1.20;;;;;;;15.43;84.21;99513.44;5012781;28;20391;-45
2023/07/28 04:22:32;;;;;;;1.88;1.55;;;;;;;15.41;84.41;99513.03;5031468;28;20049;-46
2023/07/28 04:24:59;;;;;;;3.10;1.13;;;;;;;15.41;84.36;99509.50;5018646;28;20033;-46
2023/07/28 04:27:27;;;;;;;2.22;1.25;;;;;;;15.36;84.56;99513.47;5021412;28;20400;-45
2023/07/28 04:29:58;;;;;;;3.78;1.50;;;;;;;15.35;84.65;99514.69;5019150;28;20049;-45
2023/07/28 04:32:25;;;;;;;5.82;1.40;;;;;;;15.32;84.67;99512.72;5031209;28;20107;-45
2023/07/28 04:34:53;;;;;;;2.15;1.10;;;;;;;15.27;84.69;99517.91;5028577;28;20403;-46
2023/07/28 04:37:20;;;;;;;2.15;1.05;;;;;;;15.25;84.85;99518.31;5017891;28;20062;-45
2023/07/28 04:39:47;;;;;;;8.30;0.80;;;;;;;15.22;84.70;99522.72;5029215;28;20056;-46
2023/07/28 04:42:13;;;;;;;2.17;0.93;;;;;;;15.23;84.65;99527.09;5025310;28;20096;-45
2023/07/28 04:44:40;;;;;;;4.18;1.17;;;;;;;15.25;84.62;99524.69;5029385;28;20871;-45
2023/07/28 04:47:07;;;;;;;6.25;1.20;;;;;;;15.28;84.62;99534.22;5021479;28;20046;-46
2023/07/28 04:49:34;;;;;;;2.53;0.63;;;;;;;15.29;84.58;99538.63;5005072;28;20041;-47
2023/07/28 04:52:00;;;;;;;3.42;1.00;;;;;;;15.31;84.69;99532.63;5027727;28;20104;-47
2023/07/28 04:54:27;;;;;;;2.85;1.10;;;;;;;15.33;84.75;99531.00;5027688;28;20124;-48
2023/07/28 04:56:54;;;;;;;3.28;1.25;;;;;;;15.36;84.74;99532.19;5031431;28;20045;-48
2023/07/28 04:59:21;;;;;;;5.10;2.38;;;;;;;15.38;84.63;99540.97;5021181;28;20593;-46
2023/07/28 05:01:47;;;;;;;3.40;1.63;;;;;;;15.45;84.79;99549.28;5016385;28;20054;-45
2023/07/28 05:04:14;;;;;;;3.03;2.15;;;;;;;15.50;84.86;99546.09;5031185;28;20558;-46
2023/07/28 05:06:41;;;;;;;5.70;3.15;;;;;;;15.50;84.76;99555.28;5028883;28;20050;-45
2023/07/28 05:09:09;;;;;;;5.40;2.50;;;;;;;15.54;84.83;99552.47;5032366;28;20041;-46
2023/07/28 05:11:35;;;;;;;3.90;2.50;;;;;;;15.56;84.88;99548.06;5035001;28;20053;-45
2023/07/28 05:14:05;;;;;;;6.28;2.30;;;;;;;15.58;84.81;99547.66;5019572;28;20072;-45
2023/07/28 05:16:32;;;;;;;5.93;2.33;;;;;;;15.62;84.76;99548.44;5023479;28;20411;-45
2023/07/28 05:18:59;;;;;;;3.85;2.03;;;;;;;15.64;84.75;99548.81;5034256;28;20050;-46
2023/07/28 05:21:26;;;;;;;3.03;2.03;;;;;;;15.67;84.59;99548.00;5031615;28;20045;-46
2023/07/28 05:23:53;;;;;;;4.68;2.40;;;;;;;15.70;84.45;99549.97;5026198;28;20128;-45
2023/07/28 05:26:19;;;;;;;2.20;1.50;;;;;;;15.70;84.46;99545.19;5020151;28;20052;-45
2023/07/28 05:28:46;;;;;;;8.07;1.73;;;;;;;15.73;84.49;99541.56;5013333;28;20050;-45
2023/07/28 05:31:15;;;;;;;3.90;1.20;;;;;;;15.75;84.19;99549.56;5033575;28;20128;-47
2023/07/28 05:33:42;;;;;;;3.22;1.35;;;;;;;15.75;84.14;99546.75;5005536;28;20058;-45
2023/07/28 05:36:09;;;;;;;2.50;0.95;;;;;;;15.77;84.16;99549.94;5030295;28;20038;-46
2023/07/28 05:38:35;;;;;;;6.38;1.23;;;;;;;15.79;83.86;99550.31;5033890;28;20048;-45
2023/07/28 05:41:03;;;;;;;1.95;1.08;;;;;;;15.79;83.46;99550.31;5034090;28;20055;-46
2023/07/28 05:43:31;;;;;;;3.13;1.23;;;;;;;15.77;83.42;99553.53;5004877;28;20460;-47
2023/07/28 05:45:59;;;;;;;3.58;1.23;;;;;;;15.76;83.26;99553.91;5031625;28;20042;-46
2023/07/28 05:48:26;;;;;;;3.90;1.45;;;;;;;15.73;82.87;99557.50;5034443;28;20096;-45
2023/07/28 05:50:53;;;;;;;1.90;0.98;;;;;;;15.65;82.71;99547.59;5020879;28;20049;-46
2023/07/28 05:53:21;;;;;;;3.55;1.00;;;;;;;15.59;82.72;99547.25;5021393;28;20057;-45
2023/07/28 05:55:48;;;;;;;2.97;0.95;;;;;;;15.56;82.76;99547.28;5027942;28;20045;-44
2023/07/28 05:58:15;;;;;;;4.00;1.50;;;;;;;15.58;83.04;99550.44;5014507;28;20140;-46
2023/07/28 06:00:42;;;;;;;2.45;0.73;;;;;;;15.58;83.15;99548.44;5020604;28;20085;-47
2023/07/28 06:03:12;;;;;;;1.15;0.90;;;;;;;15.60;83.36;99539.66;5008064;28;20128;-47
2023/07/28 06:05:42;;;;;;;6.40;1.25;;;;;;;15.61;83.38;99544.06;5014654;28;20088;-48
2023/07/28 06:08:09;;;;;;;6.10;1.38;;;;;;;15.62;83.36;99548.44;5001124;28;20038;-45
2023/07/28 06:10:37;;;;;;;2.53;1.30;;;;;;;15.64;83.37;99543.25;5005919;28;20054;-45
2023/07/28 06:13:04;;;;;;;3.15;1.48;;;;;;;15.66;83.41;99549.19;4997326;28;20440;-47
2023/07/28 06:15:31;;;;;;;5.97;1.45;;;;;;;15.67;83.42;99553.59;5005690;28;20381;-46
2023/07/28 06:17:57;;;;;;;8.98;2.53;;;;;;;15.68;83.55;99544.00;5003790;28;20039;-46
2023/07/28 06:20:24;;;;;;;3.15;1.20;;;;;;;15.68;83.56;99544.78;5014244;28;20042;-46
2023/07/28 06:22:51;;;;;;;4.13;1.60;;;;;;;15.73;83.58;99549.13;5012717;28;20470;-49
2023/07/28 06:25:18;;;;;;;4.55;1.35;;;;;;;15.74;83.42;99542.38;5009526;28;20042;-46
2023/07/28 06:27:44;;;;;;;8.50;1.83;;;;;;;15.73;83.14;99546.34;5010262;28;20058;-47
2023/07/28 06:30:11;;;;;;;3.25;0.90;;;;;;;15.75;82.85;99546.75;5007648;28;20056;-47
2023/07/28 06:32:38;;;;;;;5.30;1.50;;;;;;;15.74;83.03;99553.53;5000547;28;20046;-45
2023/07/28 06:35:09;;;;;;;4.05;1.20;;;;;;;15.75;82.83;99546.75;5009349;28;20104;-46
2023/07/28 06:37:37;;;;;;;3.40;1.15;;;;;;;15.76;82.77;99553.91;5009737;28;20046;-46
2023/07/28 06:40:06;;;;;;;2.55;0.80;;;;;;;15.79;82.72;99541.94;5004500;28;20073;-45
2023/07/28 06:42:34;;;;;;;2.13;1.10;;;;;;;15.82;82.41;99547.50;5004789;28;20105;-46
2023/07/28 06:45:02;;;;;;;2.90;0.90;;;;;;;15.87;82.34;99542.69;4988296;28;20045;-46
2023/07/28 06:47:29;;;;;;;2.85;0.75;;;;;;;15.91;82.15;99544.25;5013806;28;20430;-45
2023/07/28 06:49:56;;;;;;;2.65;0.75;;;;;;;15.98;81.74;99535.81;5012771;28;20065;-46
2023/07/28 06:52:22;;;;;;;1.73;1.15;;;;;;;16.10;81.58;99535.31;5011213;28;20041;-45
2023/07/28 06:54:49;;;;;;;1.98;1.10;;;;;;;16.21;81.21;99532.44;5013619;28;20511;-46
2023/07/28 06:57:16;;;;;;;4.32;2.40;;;;;;;16.27;81.07;99537.16;5012528;28;20871;-45
2023/07/28 06:59:43;;;;;;;4.40;1.02;;;;;;;16.34;80.83;99537.09;5003754;28;20128;-48
2023/07/28 07:02:10;;;;;;;2.60;0.90;;;;;;;16.34;80.32;99534.31;5010897;28;20474;-50
2023/07/28 07:04:37;;;;;;;1.42;0.93;;;;;;;16.30;79.71;99527.16;5023525;28;20084;-46
2023/07/28 07:07:04;;;;;;;6.07;1.00;;;;;;;16.27;79.53;99528.78;5021545;28;20048;-46
2023/07/28 07:09:30;;;;;;;2.65;1.13;;;;;;;16.27;79.50;99523.19;5022990;28;20046;-48
2023/07/28 07:11:57;;;;;;;2.67;1.20;;;;;;;16.25;79.32;99527.63;5032735;28;20046;-49
2023/07/28 07:14:24;;;;;;;2.55;0.90;;;;;;;16.30;79.08;99530.75;5027670;28;20096;-46
2023/07/28 07:16:51;;;;;;;2.30;1.00;;;;;;;16.39;78.56;99536.66;5032445;28;20080;-46
2023/07/28 07:19:18;;;;;;;1.65;0.90;;;;;;;16.52;78.61;99533.34;5021786;28;20491;-48
2023/07/28 07:21:45;;;;;;;2.72;0.93;;;;;;;16.70;78.76;99529.19;5019889;28;20080;-49
2023/07/28 07:24:13;;;;;;;3.55;0.80;;;;;;;16.91;78.50;99528.16;5025483;28;20049;-47
2023/07/28 07:26:40;;;;;;;3.63;1.20;;;;;;;17.10;77.53;99526.72;5018691;28;20097;-45
2023/07/28 07:29:10;;;;;;;4.03;1.08;;;;;;;17.29;77.28;99526.88;5013076;28;20466;-50
2023/07/28 07:31:37;;;;;;;3.00;0.70;;;;;;;17.49;76.90;99538.19;5014002;28;20104;-46
2023/07/28 07:34:04;;;;;;;6.47;1.83;;;;;;;17.63;76.26;99535.25;5024995;28;20056;-46
2023/07/28 07:36:31;;;;;;;1.67;1.00;;;;;;;17.79;76.10;99534.59;5027488;28;20049;-47
2023/07/28 07:38:58;;;;;;;2.00;1.00;;;;;;;17.93;75.96;99532.38;5029644;28;20042;-49
2023/07/28 07:41:25;;;;;;;3.10;1.00;;;;;;;18.14;75.20;99542.44;5027066;28;20042;-46
2023/07/28 07:43:54;;;;;;;1.52;0.70;;;;;;;18.27;74.50;99535.00;5028005;28;20049;-46
2023/07/28 07:46:20;;;;;;;1.52;0.73;;;;;;;18.37;74.03;99534.03;5022826;28;20517;-46
2023/07/28 07:48:47;;;;;;;2.85;1.02;;;;;;;18.45;73.78;99538.31;5019989;28;20046;-46
2023/07/28 07:51:15;;;;;;;2.50;0.77;;;;;;;18.55;73.21;99540.16;5005388;28;20050;-47
2023/07/28 07:53:41;;;;;;;1.55;0.60;;;;;;;18.63;72.27;99535.19;5029920;28;20041;-46
2023/07/28 07:56:09;;;;;;;4.05;0.60;;;;;;;18.68;71.81;99532.69;5027185;28;20468;-47
2023/07/28 07:58:36;;;;;;;1.80;0.60;;;;;;;18.77;71.25;99541.31;5026253;28;20131;-47
2023/07/28 08:01:04;;;;;;;2.08;0.60;;;;;;;18.79;70.35;99552.91;5023351;28;20065;-45
2023/07/28 08:03:35;;;;;;;3.78;1.40;;;;;;;18.70;69.90;99540.66;5025547;28;20567;-50
2023/07/28 08:06:03;;;;;;;1.17;0.50;;;;;;;18.64;69.43;99542.38;5023304;28;20045;-46
2023/07/28 08:08:31;;;;;;;1.88;0.60;;;;;;;18.68;69.21;99535.50;5024775;28;20049;-44
2023/07/28 08:10:57;;;;;;;2.30;0.60;;;;;;;18.73;68.82;99528.59;5021641;28;20068;-45
2023/07/28 08:13:25;;;;;;;1.60;0.60;;;;;;;18.80;67.69;99532.06;5023416;28;20063;-45
2023/07/28 08:15:52;;;;;;;3.67;0.77;;;;;;;18.85;67.82;99531.56;5023939;28;20049;-44
2023/07/28 08:18:19;;;;;;;2.42;0.60;;;;;;;18.95;67.61;99534.59;5024049;28;20061;-45
2023/07/28 08:20:46;;;;;;;0.77;0.50;;;;;;;19.03;66.83;99536.81;5027496;28;20129;-45
2023/07/28 08:23:13;;;;;;;1.92;0.80;;;;;;;19.11;66.36;99540.28;5029949;28;20529;-43
2023/07/28 08:25:40;;;;;;;4.38;0.68;;;;;;;19.12;65.62;99541.84;5029592;28;20064;-45
2023/07/28 08:28:06;;;;;;;1.08;0.57;;;;;;;19.19;65.72;99550.13;5014642;28;20511;-47
2023/07/28 08:30:33;;;;;;;1.10;0.50;;;;;;;19.28;65.19;99541.91;5022531;28;20069;-43
2023/07/28 08:33:02;;;;;;;3.03;0.70;;;;;;;19.38;64.44;99536.09;5028704;28;20128;-48
2023/07/28 08:35:29;;;;;;;2.88;1.13;;;;;;;19.53;64.64;99530.97;5019376;28;20089;-45
2023/07/28 08:37:55;;;;;;;1.10;0.35;;;;;;;19.73;64.16;99533.72;5019194;28;20034;-44
2023/07/28 08:40:24;;;;;;;0.93;0.68;;;;;;;20.19;63.18;99538.25;5028691;28;20041;-44
2023/07/28 08:42:51;;;;;;;0.70;0.55;;;;;;;20.38;62.64;99546.63;5017564;28;20100;-46
2023/07/28 08:45:19;;;;;;;2.75;0.60;;;;;;;20.33;62.02;99544.31;5023112;28;20049;-45
2023/07/28 08:47:45;;;;;;;1.48;0.88;;;;;;;20.19;61.40;99544.66;5030096;28;20046;-44
2023/07/28 08:50:12;;;;;;;1.45;0.70;;;;;;;20.07;61.60;99544.59;5024581;28;20044;-49
2023/07/28 08:52:39;;;;;;;5.88;0.80;;;;;;;19.99;61.66;99533.50;5023550;28;20054;-45
2023/07/28 08:55:09;;;;;;;1.30;0.75;;;;;;;19.87;61.78;99537.00;5024828;28;20038;-46
2023/07/28 08:57:36;;;;;;;0.68;0.65;;;;;;;19.80;61.89;99528.72;5029291;28;20041;-48
2023/07/28 09:00:13;;;;;;;2.00;0.60;;;;;;;19.82;62.00;99520.69;5013235;28;20050;-47
2023/07/28 09:02:41;;;;;;;2.53;0.75;;;;;;;19.84;61.98;99518.22;5028414;28;20053;-50
2023/07/28 09:05:17;;;;;;;2.28;0.88;;;;;;;19.95;62.18;99526.38;5007094;28;20060;-45
2023/07/28 09:07:44;;;;;;;2.53;0.60;;;;;;;20.05;61.61;99528.16;5029638;28;20038;-44
2023/07/28 09:10:11;;;;;;;2.63;0.40;;;;;;;20.08;61.26;99529.28;5015885;28;20387;-45
2023/07/28 09:12:48;;;;;;;2.60;0.60;;;;;;;20.09;61.07;99525.25;5009619;28;20086;-46
2023/07/28 09:15:18;;;;;;;3.30;1.17;;;;;;;20.09;61.44;99528.06;5023304;28;20044;-45
2023/07/28 09:17:46;;;;;;;0.75;0.35;;;;;;;20.02;61.18;99541.06;5020177;28;20050;-48
2023/07/28 09:20:16;;;;;;;1.02;0.47;;;;;;;19.91;61.18;99529.28;5027972;28;20041;-45
2023/07/28 09:22:44;;;;;;;1.02;0.57;;;;;;;19.82;61.16;99534.72;5016261;28;20050;-46
2023/07/28 09:25:16;;;;;;;1.20;0.45;;;;;;;19.76;61.50;99522.41;5023887;28;20049;-45
2023/07/28 09:27:51;;;;;;;1.70;0.68;;;;;;;19.70;61.92;99521.34;5021236;28;20131;-47
2023/07/28 09:30:19;;;;;;;2.25;0.55;;;;;;;19.82;61.97;99529.09;5025870;28;20550;-46
2023/07/28 09:32:50;;;;;;;1.35;0.60;;;;;;;20.10;61.24;99521.19;5005690;28;20045;-45
2023/07/28 09:35:18;;;;;;;1.20;0.40;;;;;;;20.26;60.95;99521.22;5020483;28;20045;-45
2023/07/28 09:37:48;;;;;;;3.00;0.50;;;;;;;20.38;60.72;99517.72;5017240;28;20048;-45
2023/07/28 09:40:21;;;;;;;1.58;0.65;;;;;;;20.31;60.97;99529.13;5023436;28;20453;-46
2023/07/28 09:42:49;;;;;;;1.67;0.30;;;;;;;20.36;60.80;99531.44;5023643;28;20054;-45
2023/07/28 09:45:22;;;;;;;1.85;0.40;;;;;;;20.49;61.12;99518.22;5024242;28;20045;-46
2023/07/28 09:48:09;;;;;;;0.32;0.30;;;;;;;20.57;60.48;99519.63;5030243;28;20052;-46
2023/07/28 09:50:38;;;;;;;1.10;0.30;;;;;;;20.65;60.56;99521.03;5031062;28;20033;-44
2023/07/28 09:53:08;;;;;;;0.95;0.30;;;;;;;20.57;60.58;99514.00;5024603;28;20049;-47
2023/07/28 09:55:35;;;;;;;1.05;0.30;;;;;;;20.48;60.87;99530.69;5011127;28;20129;-48
2023/07/28 09:58:07;;;;;;;0.40;0.22;;;;;;;20.26;60.54;99521.22;5025605;28;20513;-45
2023/07/28 10:00:35;;;;;;;1.35;0.40;;;;;;;20.12;61.33;99513.16;5033319;28;20044;-45
2023/07/28 10:03:03;;;;;;;8.48;1.85;;;;;;;20.11;61.48;99517.16;5027600;28;20053;-48
2023/07/28 10:05:30;;;;;;;1.05;0.32;;;;;;;20.08;61.75;99524.47;5033945;28;20104;-45
2023/07/28 10:07:57;;;;;;;3.03;0.30;;;;;;;20.03;61.63;99513.75;5023506;28;20053;-48
2023/07/28 10:10:26;;;;;;;1.10;0.40;;;;;;;20.11;61.70;99514.38;5009589;28;20529;-45
2023/07/28 10:12:57;;;;;;;2.78;0.50;;;;;;;20.27;61.97;99505.97;5015206;28;20042;-52
2023/07/28 10:15:32;;;;;;;2.33;0.60;;;;;;;20.74;61.53;99500.66;5026637;28;20045;-46
2023/07/28 10:18:00;;;;;;;0.85;0.35;;;;;;;21.19;60.70;99510.66;5024255;28;20495;-46
2023/07/28 10:20:35;;;;;;;1.70;0.65;;;;;;;22.10;59.63;99506.22;5032818;28;20140;-45
2023/07/28 10:23:07;;;;;;;0.45;0.30;;;;;;;22.96;58.07;99502.81;5027537;28;20407;-47
2023/07/28 10:25:36;;;;;;;1.05;0.30;;;;;;;23.76;56.42;99502.19;5022803;28;20100;-46
2023/07/28 10:28:06;;;;;;;0.50;0.50;;;;;;;24.52;55.19;99500.22;5032032;28;20050;-45
2023/07/28 10:30:38;;;;;;;2.22;0.30;;;;;;;25.05;54.27;99491.44;5028786;28;20049;-46
2023/07/28 10:33:05;;;;;;;0.70;0.60;;;;;;;25.30;53.29;99485.41;5030760;28;20046;-45
2023/07/28 10:35:33;;;;;;;0.60;0.30;;;;;;;25.59;52.19;99490.56;5029324;28;20046;-50
2023/07/28 10:38:30;;;;;;;0.38;0.20;;;;;;;25.65;51.43;99492.28;5021342;28;20042;-46
2023/07/28 10:41:18;;;;;;;0.70;0.30;;;;;;;25.72;51.65;99489.09;5014764;28;20068;-45
2023/07/28 10:43:46;;;;;;;0.50;0.22;;;;;;;25.69;50.53;99489.25;5020262;28;20065;-44
2023/07/28 10:46:17;;;;;;;0.30;0.30;;;;;;;25.55;50.85;99487.88;5030704;28;20044;-47
2023/07/28 10:48:46;;;;;;;0.68;0.45;;;;;;;25.41;50.55;99477.19;5032953;28;20107;-44
2023/07/28 10:51:28;;;;;;;0.35;0.20;;;;;;;25.21;50.87;99476.91;5028098;28;20041;-45
2023/07/28 10:53:56;;;;;;;1.60;0.30;;;;;;;24.97;50.78;99464.69;5030374;28;20049;-45
2023/07/28 10:56:23;;;;;;;2.80;0.60;;;;;;;24.91;52.17;99470.22;5031336;28;20107;-46
2023/07/28 10:59:04;;;;;;;2.65;1.40;;;;;;;24.78;53.04;99459.03;5023413;28;20487;-46
2023/07/28 11:01:36;;;;;;;4.05;0.90;;;;;;;24.62;54.17;99462.16;5030656;28;20111;-45
2023/07/28 11:04:15;;;;;;;0.22;0.22;;;;;;;24.36;53.59;99446.75;5024648;28;20140;-50
2023/07/28 11:06:44;;;;;;;0.73;0.40;;;;;;;24.08;51.75;99450.78;5026071;28;20053;-46
2023/07/28 11:09:12;;;;;;;0.65;0.30;;;;;;;24.00;51.68;99443.84;5022650;28;20053;-44
2023/07/28 11:11:40;;;;;;;2.20;0.50;;;;;;;23.91;51.46;99438.16;5031390;28;20081;-46
2023/07/28 11:14:11;;;;;;;0.30;0.10;;;;;;;;;;5018096;28;20046;-45
2023/07/28 11:16:41;;;;;;;0.35;0.35;;;;;;;23.68;51.11;99436.69;5016764;28;20045;-44
2023/07/28 11:19:10;;;;;;;2.45;0.10;;;;;;;23.58;51.18;99438.72;5020988;28;20042;-45
2023/07/28 11:21:38;;;;;;;0.47;0.30;;;;;;;23.53;50.76;99425.19;5029704;28;20140;-47
2023/07/28 11:24:08;;;;;;;0.35;0.10;;;;;;;23.54;50.52;99421.09;5022077;28;20790;-45
2023/07/28 11:26:36;;;;;;;1.50;0.20;;;;;;;23.48;50.06;99433.47;5025098;28;20514;-45
2023/07/28 11:29:04;;;;;;;0.10;0.10;;;;;;;23.27;50.26;99423.75;5018007;28;20140;-45
2023/07/28 11:31:33;;;;;;;0.65;0.20;;;;;;;23.20;50.12;99424.06;5011804;28;20588;-45
2023/07/28 11:34:01;;;;;;;0.63;0.30;;;;;;;23.18;50.20;99425.75;5029254;28;20061;-44
2023/07/28 11:36:30;;;;;;;0.40;0.17;;;;;;;23.09;49.92;99417.25;5024799;28;20403;-45
2023/07/28 11:39:00;;;;;;;1.07;0.27;;;;;;;23.01;50.33;99419.53;5024616;28;20060;-45
2023/07/28 11:41:28;;;;;;;0.80;0.10;;;;;;;22.97;50.30;99416.09;5025056;28;20068;-46
2023/07/28 11:43:55;;;;;;;0.28;0.15;;;;;;;23.01;50.62;99411.88;5021472;28;20819;-45
2023/07/28 11:46:39;;;;;;;1.23;0.17;;;;;;;23.02;50.63;99413.47;5024224;28;20052;-46
2023/07/28 11:49:21;;;;;;;0.10;0.10;;;;;;;22.94;50.86;99414.19;5022978;28;20041;-46
2023/07/28 11:51:49;;;;;;;;;;;;;;;22.96;51.42;99415.28;5031212;28;20047;-46
2023/07/28 11:54:20;;;;;;;1.15;0.15;;;;;;;23.15;51.37;99412.56;4993587;28;20847;-46
2023/07/28 11:56:48;;;;;;;1.53;0.30;;;;;;;23.24;50.97;99413.41;5019056;28;20060;-45
2023/07/28 11:59:17;;;;;;;2.15;0.20;;;;;;;23.32;50.75;99420.38;5011498;28;20407;-47
2023/07/28 12:01:58;;;;;;;0.95;0.35;;;;;;;23.30;51.21;99422.84;5008748;28;20064;-45
2023/07/28 12:04:33;;;;;;;0.88;0.40;;;;;;;23.23;50.51;99420.31;5027670;28;20047;-45
2023/07/28 12:07:16;;;;;;;0.75;0.20;;;;;;;23.15;50.84;99415.38;5027870;28;20033;-46
2023/07/28 12:09:53;;;;;;;2.35;0.38;;;;;;;23.21;50.47;99414.34;5026350;28;20088;-46
2023/07/28 12:12:25;;;;;;;1.05;0.20;;;;;;;23.35;50.42;99413.75;5030858;28;20093;-45
2023/07/28 12:14:53;;;;;;;0.30;0.30;;;;;;;23.41;50.39;99405.50;5030081;28;20045;-46
2023/07/28 12:17:28;;;;;;;0.32;0.30;;;;;;;23.42;50.04;99413.53;5020197;28;20495;-45
2023/07/28 12:20:15;;;;;;;0.50;0.28;;;;;;;23.44;49.96;99416.66;5020467;28;20037;-45
2023/07/28 12:22:45;;;;;;;0.38;0.20;;;;;;;23.43;49.64;99408.66;5021538;28;20471;-45
2023/07/28 12:25:12;;;;;;;0.40;0.20;;;;;;;23.42;49.91;99416.34;5028429;28;20043;-45
2023/07/28 12:27:39;;;;;;;0.63;0.22;;;;;;;23.42;50.48;99418.38;5028879;28;20078;-44
2023/07/28 12:30:08;;;;;;;1.50;0.35;;;;;;;23.41;50.68;99420.41;5028899;28;20057;-44
2023/07/28 12:32:39;;;;;;;0.47;0.30;;;;;;;23.63;51.14;99415.50;5023730;28;20051;-45
2023/07/28 12:35:30;;;;;;;2.90;0.60;;;;;;;23.72;50.73;99414.75;5024387;28;20121;-44
2023/07/28 12:38:04;;;;;;;0.73;0.30;;;;;;;23.64;50.37;99408.56;5024685;28;20216;-43
2023/07/28 12:40:52;;;;;;;0.77;0.30;;;;;;;23.64;50.68;99411.38;5015242;28;20139;-44
2023/07/28 12:43:22;;;;;;;0.20;0.20;;;;;;;23.83;50.62;99408.63;5028062;28;20290;-46
2023/07/28 12:45:53;;;;;;;6.75;0.50;;;;;;;23.92;50.28;99405.81;5023489;28;20054;-43
2023/07/28 12:48:23;;;;;;;2.72;0.68;;;;;;;23.91;50.38;99399.38;5022851;28;20065;-44
2023/07/28 12:50:50;;;;;;;1.80;0.38;;;;;;;23.71;49.88;99401.84;5012640;28;20045;-43
2023/07/28 12:53:29;;;;;;;0.40;0.40;;;;;;;23.46;49.65;99402.84;5014219;28;20049;-48
2023/07/28 12:55:58;;;;;;;0.68;0.40;;;;;;;23.25;49.96;99402.88;5019114;28;20057;-51
2023/07/28 12:58:27;;;;;;;0.65;0.40;;;;;;;23.17;50.29;99407.25;5020868;28;20400;-46
2023/07/28 13:00:59;;;;;;;0.70;0.60;;;;;;;23.19;50.72;99416.06;5020278;28;20052;-44
2023/07/28 13:03:28;;;;;;;2.10;0.75;;;;;;;23.28;50.92;99405.59;5009027;28;20073;-47
2023/07/28 13:05:55;;;;;;;1.70;0.60;;;;;;;23.37;50.47;99405.66;5005401;28;20069;-44
2023/07/28 13:08:22;;;;;;;4.28;0.60;;;;;;;23.40;50.68;99401.13;4988094;28;20058;-44
2023/07/28 13:10:52;;;;;;;0.55;0.43;;;;;;;23.38;50.73;99407.22;5004424;28;20125;-45
2023/07/28 13:13:21;;;;;;;2.75;0.55;;;;;;;23.34;50.69;99403.72;5007258;28;20041;-45
2023/07/28 13:15:48;;;;;;;1.20;0.55;;;;;;;23.41;50.98;99395.00;5002687;28;20451;-45
2023/07/28 13:18:15;;;;;;;0.55;0.50;;;;;;;23.55;51.03;99400.06;5003584;28;20053;-47
2023/07/28 13:20:42;;;;;;;1.00;0.55;;;;;;;23.60;50.87;99399.47;5010299;28;20108;-44
2023/07/28 13:23:08;;;;;;;1.75;0.65;;;;;;;23.47;50.80;99387.50;5010206;28;20050;-45
2023/07/28 13:25:35;;;;;;;0.75;0.50;;;;;;;23.46;51.03;99387.94;5011896;28;20045;-46
2023/07/28 13:28:02;;;;;;;0.75;0.75;;;;;;;23.38;51.14;99390.28;5012774;28;20545;-44
2023/07/28 13:30:29;;;;;;;1.90;0.50;;;;;;;23.23;50.96;99389.25;5014013;28;20092;-45
2023/07/28 13:32:56;;;;;;;2.10;0.60;;;;;;;23.17;51.02;99379.78;5006990;28;20500;-46
2023/07/28 13:35:24;;;;;;;2.20;0.88;;;;;;;23.24;51.05;99379.53;5006527;28;20038;-44
2023/07/28 13:37:51;;;;;;;2.25;0.50;;;;;;;23.18;50.86;99364.44;5012602;28;20152;-44
2023/07/28 13:40:18;;;;;;;1.13;0.47;;;;;;;23.30;50.74;99369.19;4998985;28;20050;-44
2023/07/28 13:42:45;;;;;;;0.80;0.63;;;;;;;23.39;51.07;99374.13;4993001;28;20451;-45
2023/07/28 13:45:12;;;;;;;1.42;0.50;;;;;;;23.56;51.29;99373.38;5013774;28;20511;-45
2023/07/28 13:47:39;;;;;;;1.58;0.50;;;;;;;23.75;50.65;99376.28;5014701;28;20050;-44
2023/07/28 13:50:07;;;;;;;1.17;0.60;;;;;;;23.58;50.33;99370.09;5013414;28;20519;-44
2023/07/28 13:52:33;;;;;;;1.27;0.50;;;;;;;23.33;50.91;99362.59;5011752;28;20405;-44
2023/07/28 13:55:01;;;;;;;1.20;0.55;;;;;;;23.13;50.98;99373.50;5003478;28;20046;-45
2023/07/28 13:57:34;;;;;;;2.65;0.90;;;;;;;23.08;51.70;99360.00;5010384;28;20480;-45
2023/07/28 14:00:01;;;;;;;2.72;0.70;;;;;;;23.06;51.84;99358.91;5002659;28;20060;-44
2023/07/28 14:02:28;;;;;;;0.85;0.60;;;;;;;22.95;52.07;99359.31;5004917;28;20057;-45
2023/07/28 14:04:55;;;;;;;1.10;0.70;;;;;;;22.91;52.07;99355.81;5028254;28;20053;-44
2023/07/28 14:07:21;;;;;;;0.63;0.32;;;;;;;22.80;51.99;99361.88;5020982;28;20104;-45
2023/07/28 14:09:48;;;;;;;0.93;0.40;;;;;;;22.73;51.99;99381.13;5020622;28;20144;-44
2023/07/28 14:12:15;;;;;;;0.43;0.22;;;;;;;22.64;52.29;99366.94;5024983;28;20042;-45
2023/07/28 14:14:42;;;;;;;1.65;0.30;;;;;;;22.56;51.65;99374.09;5030398;28;20041;-44
2023/07/28 14:17:09;;;;;;;1.27;0.55;;;;;;;22.49;51.59;99357.41;5022761;28;20053;-45
2023/07/28 14:19:38;;;;;;;2.42;0.68;;;;;;;22.55;52.11;99366.88;5027679;28;20049;-44
2023/07/28 14:22:06;;;;;;;0.95;0.35;;;;;;;22.62;52.38;99355.31;5024172;28;20037;-44
2023/07/28 14:24:32;;;;;;;1.52;0.60;;;;;;;22.58;52.61;99366.75;5022890;28;20045;-44
2023/07/28 14:26:59;;;;;;;1.23;0.55;;;;;;;22.48;52.60;99367.91;5030674;28;20134;-45
2023/07/28 14:29:26;;;;;;;1.85;0.60;;;;;;;22.41;52.67;99360.50;5020456;28;20075;-44
2023/07/28 14:31:53;;;;;;;1.42;0.80;;;;;;;22.51;52.93;99355.72;5017113;28;20054;-47
2023/07/28 14:34:20;;;;;;;1.33;0.88;;;;;;;22.57;53.87;99359.53;5027431;28;20042;-45
2023/07/28 15:12:35;;;;;;;3.97;0.43;;;;;;;22.59;53.17;99325.19;4993087;28;20466;-49
2023/07/28 15:15:02;;;;;;;2.70;0.75;;;;;;;22.32;53.19;99318.13;4996947;28;20396;-47
2023/07/28 15:17:29;;;;;;;1.13;0.43;;;;;;;22.10;54.10;99325.03;4996754;28;20496;-49